createdAt,value
2018-02-13T00:01:16.101Z,2.41
2018-02-13T00:02:04.326Z,2.58
2018-02-13T00:02:47.020Z,2.53
2018-02-13T00:03:27.629Z,2.47
2018-02-13T00:04:10.464Z,2.38
2018-02-13T00:04:51.710Z,2.37
2018-02-13T00:05:32.306Z,2.41
2018-02-13T00:06:12.719Z,2.56
2018-02-13T00:06:53.228Z,2.55
2018-02-13T00:07:33.777Z,2.48
2018-02-13T00:08:14.674Z,2.61
2018-02-13T00:08:55.509Z,2.62
2018-02-13T00:09:37.125Z,2.56
2018-02-13T00:10:18.564Z,2.63
2018-02-13T00:10:59.237Z,2.63
2018-02-13T00:11:40.236Z,2.62
2018-02-13T00:12:21.347Z,2.53
2018-02-13T00:13:01.901Z,2.58
2018-02-13T00:13:45.054Z,2.51
2018-02-13T00:14:26.370Z,2.38
2018-02-13T00:18:17.659Z,2.11
2018-02-13T00:18:57.950Z,2.04
2018-02-13T00:19:38.354Z,2.09
2018-02-13T00:20:18.734Z,2.05
2018-02-13T00:20:59.123Z,2.02
2018-02-13T00:21:39.491Z,1.98
2018-02-13T00:22:19.888Z,1.89
2018-02-13T00:23:00.284Z,2.04
2018-02-13T00:24:39.297Z,2.04
2018-02-13T00:25:18.882Z,2.05
2018-02-13T00:25:59.310Z,2.2
2018-02-13T00:26:39.666Z,2.22
2018-02-13T00:27:20.063Z,2.27
2018-02-13T00:28:00.465Z,2.4
2018-02-13T00:28:40.922Z,2.32
2018-02-13T00:29:21.352Z,2.22
2018-02-13T00:30:01.648Z,2.27
2018-02-13T00:30:42.039Z,2.15
2018-02-13T00:31:22.427Z,2.15
2018-02-13T00:32:02.792Z,2.18
2018-02-13T00:32:43.183Z,2.14
2018-02-13T00:33:23.544Z,2.07
2018-02-13T00:34:03.945Z,2.19
2018-02-13T00:34:44.341Z,2
2018-02-13T00:35:24.720Z,2.07
2018-02-13T00:36:05.139Z,1.83
2018-02-13T00:36:45.544Z,1.86
2018-02-13T00:37:25.907Z,1.83
2018-02-13T00:38:06.289Z,1.85
2018-02-13T00:38:46.686Z,1.82
2018-02-13T00:39:27.074Z,1.81
2018-02-13T00:40:07.487Z,1.82
2018-02-13T00:40:47.856Z,1.89
2018-02-13T00:41:28.246Z,1.86
2018-02-13T00:42:08.644Z,1.85
2018-02-13T00:42:49.031Z,1.92
2018-02-13T00:43:29.421Z,1.86
2018-02-13T00:44:09.825Z,1.79
2018-02-13T00:44:50.213Z,1.81
2018-02-13T00:45:30.641Z,1.81
2018-02-13T00:46:10.979Z,1.85
2018-02-13T00:46:51.389Z,1.74
2018-02-13T00:47:31.788Z,1.79
2018-02-13T00:48:12.200Z,1.75
2018-02-13T00:48:52.599Z,1.86
2018-02-13T00:49:32.969Z,1.79
2018-02-13T00:50:13.364Z,1.71
2018-02-13T00:50:53.794Z,1.72
2018-02-13T00:51:34.171Z,1.71
2018-02-13T00:52:14.592Z,1.57
2018-02-13T00:52:54.943Z,1.6
2018-02-13T00:53:35.340Z,1.6
2018-02-13T00:54:15.737Z,1.68
2018-02-13T00:56:03.025Z,1.71
2018-02-13T00:56:43.387Z,1.71
2018-02-13T00:57:23.788Z,1.71
2018-02-13T00:59:21.527Z,1.67
2018-02-13T01:00:02.218Z,1.56
2018-02-13T01:00:42.627Z,1.65
2018-02-13T01:01:23.030Z,1.67
2018-02-13T01:02:03.414Z,1.63
2018-02-13T01:02:43.807Z,1.67
2018-02-13T01:03:24.227Z,1.68
2018-02-13T01:04:04.656Z,1.63
2018-02-13T01:04:45.005Z,1.68
2018-02-13T01:05:25.386Z,1.61
2018-02-13T01:06:05.761Z,1.63
2018-02-13T01:06:46.159Z,1.65
2018-02-13T01:07:26.550Z,1.53
2018-02-13T01:08:06.943Z,1.65
2018-02-13T01:08:47.332Z,1.67
2018-02-13T01:09:27.739Z,1.67
2018-02-13T01:10:08.145Z,1.53
2018-02-13T01:10:48.563Z,1.43
2018-02-13T01:11:28.962Z,1.35
2018-02-13T01:13:41.476Z,1.2
2018-02-13T01:14:21.912Z,1.18
2018-02-13T01:15:02.289Z,1.13
2018-02-13T01:15:42.666Z,1.04
2018-02-13T01:16:23.129Z,1.17
2018-02-13T01:17:03.489Z,1.1
2018-02-13T01:17:43.875Z,1.2
2018-02-13T01:18:24.274Z,1.16
2018-02-13T01:19:04.665Z,1.14
2018-02-13T01:19:45.064Z,1.24
2018-02-13T01:20:25.453Z,1.25
2018-02-13T01:21:05.897Z,1.14
2018-02-13T01:21:46.273Z,1.1
2018-02-13T01:22:26.684Z,1.17
2018-02-13T01:23:07.108Z,1.18
2018-02-13T01:23:47.464Z,1.16
2018-02-13T01:24:27.852Z,1.13
2018-02-13T01:25:08.244Z,1.18
2018-02-13T01:25:48.653Z,1.21
2018-02-13T01:26:28.994Z,1.2
2018-02-13T01:27:09.406Z,1.18
2018-02-13T01:27:49.786Z,1.24
2018-02-13T01:28:30.182Z,1.34
2018-02-13T01:29:10.633Z,1.36
2018-02-13T01:29:50.965Z,1.38
2018-02-13T01:30:31.414Z,1.46
2018-02-13T01:31:11.764Z,1.43
2018-02-13T01:31:52.152Z,1.49
2018-02-13T01:32:32.569Z,1.5
2018-02-13T01:33:12.984Z,1.56
2018-02-13T01:33:53.362Z,1.52
2018-02-13T01:34:33.736Z,1.54
2018-02-13T01:35:14.175Z,1.46
2018-02-13T01:35:54.528Z,1.53
2018-02-13T01:36:34.925Z,1.54
2018-02-13T01:37:15.287Z,1.52
2018-02-13T01:37:55.672Z,1.56
2018-02-13T01:38:36.078Z,1.71
2018-02-13T01:39:16.522Z,1.71
2018-02-13T01:39:56.902Z,1.79
2018-02-13T01:40:37.336Z,1.71
2018-02-13T01:41:17.760Z,1.65
2018-02-13T01:41:58.069Z,1.68
2018-02-13T01:42:38.454Z,1.67
2018-02-13T01:43:18.854Z,1.63
2018-02-13T01:43:59.239Z,1.63
2018-02-13T01:44:39.640Z,1.6
2018-02-13T01:45:20.040Z,1.53
2018-02-13T01:46:00.459Z,1.52
2018-02-13T01:46:40.841Z,1.61
2018-02-13T01:47:21.239Z,1.64
2018-02-13T01:48:01.659Z,1.64
2018-02-13T01:48:42.083Z,1.67
2018-02-13T01:49:22.510Z,1.88
2018-02-13T01:51:38.264Z,1.88
2018-02-13T01:52:17.001Z,1.83
2018-02-13T01:52:57.456Z,1.9
2018-02-13T01:53:37.846Z,1.88
2018-02-13T01:54:18.209Z,1.88
2018-02-13T01:54:58.575Z,1.79
2018-02-13T01:55:38.947Z,1.72
2018-02-13T01:56:19.348Z,1.7
2018-02-13T01:56:59.744Z,1.61
2018-02-13T01:57:40.130Z,1.67
2018-02-13T01:58:20.530Z,1.65
2018-02-13T01:59:00.919Z,1.53
2018-02-13T01:59:41.302Z,1.54
2018-02-13T02:00:21.709Z,1.52
2018-02-13T02:01:02.085Z,1.53
2018-02-13T02:01:42.482Z,1.56
2018-02-13T02:02:22.925Z,1.57
2018-02-13T02:04:35.803Z,1.56
2018-02-13T02:05:15.861Z,1.72
2018-02-13T02:05:56.284Z,1.86
2018-02-13T02:06:36.745Z,1.86
2018-02-13T02:07:17.120Z,1.93
2018-02-13T02:07:57.495Z,1.86
2018-02-13T02:08:37.847Z,1.89
2018-02-13T02:09:18.267Z,1.85
2018-02-13T02:09:58.610Z,1.88
2018-02-13T02:10:38.994Z,1.88
2018-02-13T02:11:19.378Z,1.83
2018-02-13T02:11:59.792Z,1.83
2018-02-13T02:12:40.203Z,1.85
2018-02-13T02:13:20.536Z,1.86
2018-02-13T02:14:00.940Z,1.88
2018-02-13T02:14:41.340Z,1.74
2018-02-13T02:15:21.718Z,1.64
2018-02-13T02:16:02.092Z,1.64
2018-02-13T02:16:42.474Z,1.64
2018-02-13T02:17:22.871Z,1.63
2018-02-13T02:18:03.327Z,1.61
2018-02-13T02:18:43.743Z,1.57
2018-02-13T02:19:24.084Z,1.54
2018-02-13T02:20:04.486Z,1.53
2018-02-13T02:20:44.886Z,1.65
2018-02-13T02:21:25.252Z,1.6
2018-02-13T02:22:05.644Z,1.63
2018-02-13T02:22:46.007Z,1.53
2018-02-13T02:23:26.383Z,1.5
2018-02-13T02:24:06.757Z,1.52
2018-02-13T02:24:47.150Z,1.54
2018-02-13T02:25:27.541Z,1.49
2018-02-13T02:26:07.945Z,1.44
2018-02-13T02:26:48.367Z,1.47
2018-02-13T02:27:28.767Z,1.49
2018-02-13T02:28:09.158Z,1.47
2018-02-13T02:28:49.528Z,1.54
2018-02-13T02:29:29.935Z,1.52
2018-02-13T02:30:10.340Z,1.57
2018-02-13T02:30:50.731Z,1.52
2018-02-13T02:31:31.105Z,1.54
2018-02-13T02:32:11.494Z,1.5
2018-02-13T02:32:51.875Z,1.54
2018-02-13T02:33:32.298Z,1.6
2018-02-13T02:34:12.674Z,1.49
2018-02-13T02:34:53.064Z,1.49
2018-02-13T02:35:33.553Z,1.54
2018-02-13T02:36:13.863Z,1.52
2018-02-13T02:36:54.275Z,1.5
2018-02-13T02:37:34.692Z,1.53
2018-02-13T02:39:23.173Z,1.5
2018-02-13T02:40:03.069Z,1.5
2018-02-13T02:40:43.472Z,1.53
2018-02-13T02:41:23.870Z,1.5
2018-02-13T02:42:04.255Z,1.53
2018-02-13T02:42:44.641Z,1.65
2018-02-13T02:43:25.028Z,1.64
2018-02-13T02:44:05.408Z,1.53
2018-02-13T02:44:45.782Z,1.68
2018-02-13T02:45:26.199Z,1.68
2018-02-13T02:46:06.569Z,1.54
2018-02-13T02:46:46.995Z,1.6
2018-02-13T02:47:27.371Z,1.43
2018-02-13T02:48:07.803Z,1.36
2018-02-13T02:48:48.137Z,1.21
2018-02-13T02:49:28.571Z,1.2
2018-02-13T02:50:08.914Z,1.16
2018-02-13T02:50:49.324Z,1.08
2018-02-13T02:51:29.682Z,1.08
2018-02-13T02:52:10.084Z,1.17
2018-02-13T02:52:50.472Z,1.17
2018-02-13T02:53:30.904Z,1.08
2018-02-13T02:54:11.268Z,1.08
2018-02-13T02:54:51.667Z,1.07
2018-02-13T02:55:32.053Z,1.16
2018-02-13T02:56:12.479Z,1.24
2018-02-13T02:56:52.875Z,1.21
2018-02-13T02:57:33.292Z,1.24
2018-02-13T02:58:13.746Z,1.21
2018-02-13T02:58:54.093Z,1.21
2018-02-13T02:59:34.502Z,1.18
2018-02-13T03:00:14.896Z,1.32
2018-02-13T03:00:55.344Z,1.36
2018-02-13T03:01:35.783Z,1.34
2018-02-13T03:02:16.162Z,1.42
2018-02-13T03:02:56.499Z,1.5
2018-02-13T03:03:36.898Z,1.5
2018-02-13T03:04:17.299Z,1.64
2018-02-13T03:04:57.677Z,1.72
2018-02-13T03:05:38.072Z,1.71
2018-02-13T03:06:18.519Z,1.68
2018-02-13T03:06:58.933Z,1.71
2018-02-13T03:07:39.274Z,1.63
2018-02-13T03:08:19.647Z,1.6
2018-02-13T03:09:00.042Z,1.77
2018-02-13T03:09:40.444Z,1.61
2018-02-13T03:10:20.824Z,1.64
2018-02-13T03:11:01.179Z,1.7
2018-02-13T03:11:41.593Z,1.7
2018-02-13T03:12:22.062Z,1.82
2018-02-13T03:13:02.383Z,1.74
2018-02-13T03:13:42.779Z,1.71
2018-02-13T03:14:23.169Z,1.7
2018-02-13T03:15:03.573Z,1.82
2018-02-13T03:15:43.981Z,1.83
2018-02-13T03:16:24.397Z,1.81
2018-02-13T03:17:04.787Z,1.68
2018-02-13T03:18:52.018Z,1.71
2018-02-13T03:19:34.086Z,1.61
2018-02-13T03:20:13.425Z,1.64
2018-02-13T03:20:53.823Z,1.56
2018-02-13T03:21:34.232Z,1.65
2018-02-13T03:23:46.659Z,1.53
2018-02-13T03:24:27.027Z,1.61
2018-02-13T03:25:07.417Z,1.54
2018-02-13T03:25:47.845Z,1.47
2018-02-13T03:26:28.231Z,1.39
2018-02-13T03:27:08.623Z,1.32
2018-02-13T03:27:48.993Z,1.21
2018-02-13T03:28:29.427Z,1.28
2018-02-13T03:29:09.801Z,1.28
2018-02-13T03:29:50.210Z,1.29
2018-02-13T03:30:30.604Z,1.35
2018-02-13T03:31:11.039Z,1.31
2018-02-13T03:31:51.413Z,1.2
2018-02-13T03:32:31.820Z,1.24
2018-02-13T03:33:12.275Z,1.24
2018-02-13T03:33:52.636Z,1.21
2018-02-13T03:34:33.028Z,1.25
2018-02-13T03:35:13.420Z,1.17
2018-02-13T03:35:53.799Z,1.06
2018-02-13T03:37:51.956Z,1.21
2018-02-13T03:38:32.313Z,1.11
2018-02-13T03:39:12.717Z,1.14
2018-02-13T03:41:01.768Z,1.1
2018-02-13T03:41:44.855Z,1.04
2018-02-13T03:42:25.247Z,0.96
2018-02-13T03:43:05.636Z,0.95
2018-02-13T03:43:46.026Z,1.02
2018-02-13T03:44:26.421Z,1.02
2018-02-13T03:45:06.789Z,1.06
2018-02-13T03:45:47.171Z,1.1
2018-02-13T03:46:27.590Z,1.14
2018-02-13T03:47:08.005Z,1.17
2018-02-13T03:47:48.441Z,1.06
2018-02-13T03:48:28.825Z,1.1
2018-02-13T03:49:09.218Z,1.1
2018-02-13T03:49:49.616Z,1.1
2018-02-13T03:50:30.026Z,1.08
2018-02-13T03:51:10.438Z,1.06
2018-02-13T03:51:50.853Z,1
2018-02-13T03:53:49.382Z,1.1
2018-02-13T03:54:29.791Z,1.04
2018-02-13T03:55:10.188Z,1.14
2018-02-13T03:55:50.608Z,1.14
2018-02-13T03:56:30.995Z,1.18
2018-02-13T03:57:11.392Z,1.2
2018-02-13T03:57:51.813Z,1.1
2018-02-13T03:58:32.160Z,1.08
2018-02-13T03:59:12.562Z,1
2018-02-13T03:59:52.971Z,0.98
2018-02-13T04:00:33.358Z,0.99
2018-02-13T04:01:13.673Z,0.98
2018-02-13T04:01:54.093Z,0.96
2018-02-13T04:02:34.489Z,0.98
2018-02-13T04:03:14.875Z,0.96
2018-02-13T04:43:10.378Z,0.22
2018-02-13T04:43:51.235Z,0.19
2018-02-13T04:44:31.599Z,0.13
2018-02-13T04:45:11.984Z,0.08
2018-02-13T04:45:52.395Z,0.05
2018-02-13T04:46:32.799Z,-0.09
2018-02-13T04:47:13.224Z,-0.01
2018-02-13T04:47:53.600Z,-0.12
2018-02-13T04:48:33.989Z,-0.03
2018-02-13T04:49:14.408Z,-0.01
2018-02-13T04:49:54.817Z,-0.08
2018-02-13T04:50:35.181Z,-0.01
2018-02-13T04:51:15.595Z,-0.08
2018-02-13T04:51:56.009Z,-0.12
2018-02-13T04:53:48.348Z,0.02
2018-02-13T04:54:30.558Z,0.07
2018-02-13T04:55:10.970Z,0.1
2018-02-13T04:55:51.426Z,0.19
2018-02-13T04:56:31.802Z,0.12
2018-02-13T04:57:12.212Z,0.17
2018-02-13T04:57:52.609Z,0.19
2018-02-13T04:58:33.048Z,0.19
2018-02-13T04:59:13.444Z,0.26
2018-02-13T04:59:53.858Z,0.16
2018-02-13T05:00:34.267Z,0.22
2018-02-13T05:01:14.673Z,0.15
2018-02-13T05:01:55.066Z,0.19
2018-02-13T05:02:35.436Z,0.31
2018-02-13T05:03:15.850Z,0.28
2018-02-13T05:03:56.242Z,0.25
2018-02-13T05:04:36.648Z,0.41
2018-02-13T05:05:17.078Z,0.34
2018-02-13T05:05:57.476Z,0.43
2018-02-13T05:06:37.877Z,0.38
2018-02-13T05:07:18.266Z,0.45
2018-02-13T05:07:58.659Z,0.63
2018-02-13T05:08:39.070Z,0.67
2018-02-13T05:09:19.457Z,0.7
2018-02-13T05:09:59.878Z,0.7
2018-02-13T05:10:40.259Z,0.77
2018-02-13T05:11:20.687Z,0.75
2018-02-13T05:12:01.092Z,0.77
2018-02-13T05:12:41.448Z,0.86
2018-02-13T05:13:21.842Z,0.93
2018-02-13T05:14:02.232Z,0.93
2018-02-13T05:14:42.662Z,0.99
2018-02-13T05:15:23.300Z,1
2018-02-13T05:16:03.699Z,1.14
2018-02-13T05:16:44.201Z,1
2018-02-13T05:17:24.626Z,0.99
2018-02-13T05:18:05.018Z,1.08
2018-02-13T05:18:45.412Z,1.11
2018-02-13T05:19:25.813Z,1.21
2018-02-13T05:20:06.222Z,1.16
2018-02-13T05:20:46.626Z,1.1
2018-02-13T05:22:24.783Z,1.16
2018-02-13T05:23:04.622Z,1.24
2018-02-13T05:25:17.628Z,1.24
2018-02-13T05:25:57.885Z,1.21
2018-02-13T05:27:55.350Z,1.29
2018-02-13T05:28:36.301Z,1.31
2018-02-13T05:29:16.244Z,1.39
2018-02-13T05:31:23.839Z,1.47
2018-02-13T05:32:13.136Z,1.44
2018-02-13T05:33:01.292Z,1.49
2018-02-13T05:33:50.432Z,1.6
2018-02-13T05:34:39.085Z,1.63
2018-02-13T05:35:27.877Z,1.6
2018-02-13T05:37:18.507Z,1.68
2018-02-13T05:37:59.045Z,1.68
2018-02-13T05:38:39.459Z,1.7
2018-02-13T05:39:19.899Z,1.71
2018-02-13T05:40:00.282Z,1.74
2018-02-13T05:40:40.697Z,1.71
2018-02-13T05:42:53.646Z,1.7
2018-02-13T05:43:33.632Z,1.67
2018-02-13T05:45:46.207Z,1.67
2018-02-13T05:46:26.521Z,1.61
2018-02-13T05:47:06.918Z,1.67
2018-02-13T05:47:47.334Z,1.7
2018-02-13T05:48:27.720Z,1.65
2018-02-13T05:49:08.113Z,1.7
2018-02-13T05:49:48.524Z,1.61
2018-02-13T05:50:28.953Z,1.65
2018-02-13T05:51:09.325Z,1.67
2018-02-13T05:51:49.743Z,1.67
2018-02-13T05:52:30.147Z,1.53
2018-02-13T05:53:10.587Z,1.52
2018-02-13T05:53:50.963Z,1.43
2018-02-13T05:54:31.368Z,1.46
2018-02-13T05:55:11.737Z,1.46
2018-02-13T05:55:52.168Z,1.46
2018-02-13T05:56:32.539Z,1.39
2018-02-13T05:58:27.665Z,1.21
2018-02-13T05:59:05.864Z,1.14
2018-02-13T05:59:46.258Z,1.26
2018-02-13T06:00:26.661Z,1.17
2018-02-13T06:01:07.054Z,1.13
2018-02-13T06:01:47.493Z,1.13
2018-02-13T06:02:27.897Z,1.21
2018-02-13T06:03:08.271Z,1.25
2018-02-13T06:03:48.641Z,1.11
2018-02-13T06:04:29.035Z,1.1
2018-02-13T06:05:09.464Z,1.16
2018-02-13T06:05:49.879Z,1.14
2018-02-13T06:06:30.301Z,1.13
2018-02-13T06:07:10.674Z,1.2
2018-02-13T06:07:51.102Z,1.17
2018-02-13T06:08:31.482Z,1.24
2018-02-13T06:09:11.864Z,1.32
2018-02-13T06:09:52.312Z,1.36
2018-02-13T06:10:32.822Z,1.31
2018-02-13T06:11:13.254Z,1.38
2018-02-13T06:11:53.691Z,1.36
2018-02-13T06:12:34.138Z,1.34
2018-02-13T06:13:14.513Z,1.49
2018-02-13T06:13:54.963Z,1.52
2018-02-13T06:14:35.323Z,1.56
2018-02-13T06:15:15.696Z,1.65
2018-02-13T06:15:56.078Z,1.56
2018-02-13T06:16:41.557Z,1.52
2018-02-13T06:18:57.768Z,1.52
2018-02-13T06:19:35.310Z,1.52
2018-02-13T06:20:15.701Z,1.56
2018-02-13T06:20:56.111Z,1.77
2018-02-13T06:21:36.528Z,1.61
2018-02-13T06:22:16.904Z,1.65
2018-02-13T06:22:57.287Z,1.72
2018-02-13T06:23:37.757Z,1.6
2018-02-13T06:24:18.177Z,1.68
2018-02-13T06:24:58.573Z,1.61
2018-02-13T06:25:38.960Z,1.63
2018-02-13T06:26:19.380Z,1.64
2018-02-13T06:26:59.766Z,1.65
2018-02-13T06:27:40.216Z,1.71
2018-02-13T06:28:20.610Z,1.56
2018-02-13T06:30:08.229Z,1.79
2018-02-13T06:30:48.549Z,1.68
2018-02-13T06:31:29.015Z,1.74
2018-02-13T06:32:09.375Z,1.71
2018-02-13T06:32:49.780Z,1.71
2018-02-13T06:33:30.267Z,1.64
2018-02-13T06:34:10.741Z,1.72
2018-02-13T06:34:51.213Z,1.68
2018-02-13T06:35:31.688Z,1.64
2018-02-13T06:36:12.118Z,1.57
2018-02-13T06:36:52.622Z,1.71
2018-02-13T06:37:33.164Z,1.75
2018-02-13T06:38:13.618Z,1.88
2018-02-13T06:38:54.048Z,1.83
2018-02-13T06:39:34.420Z,1.81
2018-02-13T06:40:14.806Z,1.71
2018-02-13T06:40:55.413Z,1.83
2018-02-13T06:41:35.880Z,1.82
2018-02-13T06:42:16.334Z,1.71
2018-02-13T06:42:57.276Z,1.79
2018-02-13T06:43:37.942Z,1.81
2018-02-13T06:44:18.213Z,1.79
2018-02-13T06:44:58.677Z,1.86
2018-02-13T06:45:39.099Z,1.89
2018-02-13T06:46:19.599Z,1.83
2018-02-13T06:47:00.667Z,1.85
2018-02-13T06:47:42.802Z,1.83
2018-02-13T06:48:22.966Z,1.74
2018-02-13T06:49:03.374Z,1.82
2018-02-13T06:49:43.797Z,1.85
2018-02-13T06:50:24.194Z,1.74
2018-02-13T06:51:04.631Z,1.68
2018-02-13T06:51:45.070Z,1.83
2018-02-13T06:52:25.443Z,1.71
2018-02-13T06:53:05.812Z,1.71
2018-02-13T06:53:46.189Z,1.7
2018-02-13T06:54:26.636Z,1.49
2018-02-13T06:55:07.283Z,1.52
2018-02-13T06:55:47.501Z,1.39
2018-02-13T06:56:30.438Z,1.38
2018-02-13T06:57:11.237Z,1.47
2018-02-13T06:57:53.550Z,1.38
2018-02-13T06:58:32.744Z,1.34
2018-02-13T06:59:13.253Z,1.26
2018-02-13T06:59:53.589Z,1.26
2018-02-13T07:00:33.949Z,1.16
2018-02-13T07:01:15.839Z,1.11
2018-02-13T07:01:56.238Z,1.11
2018-02-13T07:03:33.565Z,1.18
2018-02-13T07:04:13.842Z,1.34
2018-02-13T07:04:54.275Z,1.56
2018-02-13T07:05:34.739Z,1.56
2018-02-13T07:06:15.139Z,1.49
2018-02-13T07:06:55.574Z,1.52
2018-02-13T07:07:35.970Z,1.5
2018-02-13T07:08:16.393Z,1.49
2018-02-13T07:08:56.813Z,1.54
2018-02-13T07:09:37.181Z,1.57
2018-02-13T07:10:17.589Z,1.52
2018-02-13T07:10:58.548Z,1.63
2018-02-13T07:11:38.960Z,1.77
2018-02-13T07:12:19.339Z,1.79
2018-02-13T07:12:59.760Z,1.75
2018-02-13T07:13:40.150Z,1.89
2018-02-13T07:14:20.564Z,1.86
2018-02-13T07:15:00.980Z,1.88
2018-02-13T07:15:41.436Z,1.81
2018-02-13T07:16:22.127Z,1.86
2018-02-13T07:17:02.515Z,1.88
2018-02-13T07:18:39.786Z,2.02
2018-02-13T07:19:20.306Z,2.14
2018-02-13T07:20:01.278Z,2.2
2018-02-13T07:20:41.683Z,2.26
2018-02-13T07:21:22.123Z,2.33
2018-02-13T07:22:05.001Z,2.38
2018-02-13T07:22:45.218Z,2.38
2018-02-13T07:23:25.584Z,2.45
2018-02-13T07:24:05.978Z,2.44
2018-02-13T07:24:46.359Z,2.33
2018-02-13T07:26:33.764Z,2.18
2018-02-13T07:27:14.022Z,2.02
2018-02-13T07:27:54.454Z,1.88
2018-02-13T07:28:34.910Z,1.71
2018-02-13T07:29:15.357Z,1.64
2018-02-13T07:29:55.712Z,1.65
2018-02-13T07:30:36.156Z,1.5
2018-02-13T07:31:16.526Z,1.54
2018-02-13T07:31:56.918Z,1.52
2018-02-13T07:32:37.296Z,1.53
2018-02-13T07:33:17.652Z,1.52
2018-02-13T07:33:58.068Z,1.71
2018-02-13T07:36:11.486Z,1.92
2018-02-13T07:36:51.226Z,2.05
2018-02-13T07:37:31.640Z,2.15
2018-02-13T07:38:12.089Z,2.2
2018-02-13T07:38:52.634Z,2.36
2018-02-13T07:39:33.123Z,2.43
2018-02-13T07:40:13.514Z,2.63
2018-02-13T07:40:53.829Z,2.65
2018-02-13T07:41:34.203Z,2.71
2018-02-13T07:42:14.628Z,2.83
2018-02-13T07:42:55.055Z,2.98
2018-02-13T07:43:35.413Z,3.2
2018-02-13T07:44:15.844Z,3.34
2018-02-13T07:44:56.214Z,3.52
2018-02-13T07:45:36.654Z,3.64
2018-02-13T07:46:16.985Z,3.88
2018-02-13T07:46:57.356Z,3.95
2018-02-13T07:47:37.766Z,4.07
2018-02-13T07:48:18.148Z,4.26
2018-02-13T07:48:58.652Z,4.56
2018-02-13T07:49:39.299Z,4.5
2018-02-13T07:50:19.688Z,4.64
2018-02-13T07:51:00.179Z,4.77
2018-02-13T07:51:40.543Z,5.08
2018-02-13T07:52:21.092Z,5.22
2018-02-13T07:53:01.855Z,5.23
2018-02-13T07:53:42.506Z,5.37
2018-02-13T07:54:22.968Z,5.4
2018-02-13T07:55:03.338Z,5.33
2018-02-13T07:55:43.798Z,5.55
2018-02-13T07:56:24.161Z,5.6
2018-02-13T07:57:04.713Z,5.75
2018-02-13T07:57:45.085Z,5.84
2018-02-13T07:58:25.565Z,5.99
2018-02-13T07:59:05.933Z,6.1
2018-02-13T07:59:46.387Z,6.01
2018-02-13T08:00:26.736Z,6.1
2018-02-13T08:01:07.184Z,6.14
2018-02-13T08:01:47.550Z,6.24
2018-02-13T08:02:27.948Z,6.28
2018-02-13T08:03:08.355Z,6.33
2018-02-13T08:03:48.836Z,6.33
2018-02-13T08:04:29.216Z,6.27
2018-02-13T08:05:10.166Z,6.28
2018-02-13T08:05:50.662Z,6.38
2018-02-13T08:06:31.080Z,6.35
2018-02-13T08:07:11.551Z,6.39
2018-02-13T08:07:52.056Z,6.2
2018-02-13T08:08:32.585Z,6.17
2018-02-13T08:09:13.003Z,6.27
2018-02-13T08:09:53.430Z,6.2
2018-02-13T08:10:33.844Z,6.21
2018-02-13T08:11:14.220Z,6.27
2018-02-13T08:11:54.613Z,6.13
2018-02-13T08:12:35.093Z,6.25
2018-02-13T08:14:15.337Z,6.08
2018-02-13T08:14:57.245Z,6.1
2018-02-13T08:15:37.641Z,6.14
2018-02-13T08:16:18.019Z,6.19
2018-02-13T08:16:58.556Z,6.21
2018-02-13T08:17:38.938Z,6.13
2018-02-13T08:18:19.358Z,6.1
2018-02-13T08:18:59.756Z,6.2
2018-02-13T08:19:40.182Z,6.27
2018-02-13T08:20:20.659Z,6.14
2018-02-13T08:21:01.035Z,6.19
2018-02-13T08:21:41.418Z,6.13
2018-02-13T08:22:21.803Z,6.03
2018-02-13T08:23:02.227Z,6.27
2018-02-13T08:23:42.698Z,6.25
2018-02-13T08:24:23.095Z,6.21
2018-02-13T08:25:03.530Z,6.25
2018-02-13T08:25:43.934Z,6.28
2018-02-13T08:26:24.314Z,6.28
2018-02-13T08:27:04.758Z,6.51
2018-02-13T08:27:45.215Z,6.51
2018-02-13T08:28:25.669Z,6.54
2018-02-13T08:29:06.056Z,6.71
2018-02-13T08:29:46.447Z,6.64
2018-02-13T08:30:26.876Z,6.69
2018-02-13T08:31:07.485Z,6.69
2018-02-13T08:31:48.027Z,6.73
2018-02-13T08:32:30.255Z,6.64
2018-02-13T08:33:09.299Z,6.53
2018-02-13T08:33:50.810Z,6.71
2018-02-13T08:34:30.626Z,6.79
2018-02-13T08:35:11.080Z,6.72
2018-02-13T08:37:09.264Z,6.65
2018-02-13T08:40:00.605Z,6.68
2018-02-13T08:40:41.011Z,6.68
2018-02-13T08:41:21.464Z,6.73
2018-02-13T08:42:01.946Z,6.76
2018-02-13T08:42:42.417Z,6.93
2018-02-13T08:43:22.966Z,6.86
2018-02-13T08:44:03.698Z,6.78
2018-02-13T08:44:44.280Z,6.63
2018-02-13T08:45:25.793Z,6.71
2018-02-13T08:46:06.467Z,6.71
2018-02-13T08:46:46.732Z,6.71
2018-02-13T08:47:27.055Z,6.89
2018-02-13T08:48:07.499Z,6.94
2018-02-13T08:48:47.897Z,7.08
2018-02-13T08:49:29.371Z,7.08
2018-02-13T08:50:09.791Z,6.99
2018-02-13T08:50:50.223Z,6.93
2018-02-13T08:51:30.859Z,6.68
2018-02-13T08:52:11.269Z,6.6
2018-02-13T08:52:51.616Z,6.48
2018-02-13T08:53:32.020Z,6.45
2018-02-13T08:54:12.676Z,6.28
2018-02-13T08:54:52.986Z,6.16
2018-02-13T08:55:33.400Z,5.88
2018-02-13T08:56:13.833Z,5.85
2018-02-13T08:56:54.263Z,5.84
2018-02-13T08:57:34.871Z,5.81
2018-02-13T08:58:15.621Z,5.8
2018-02-13T08:58:56.384Z,6.01
2018-02-13T08:59:36.927Z,6.2
2018-02-13T09:00:18.399Z,6.17
2018-02-13T09:00:58.419Z,6.19
2018-02-13T09:01:39.780Z,6.16
2018-02-13T09:02:20.404Z,6.25
2018-02-13T09:03:01.066Z,6.32
2018-02-13T09:03:42.136Z,6.35
2018-02-13T09:04:23.200Z,6.45
2018-02-13T09:05:03.498Z,6.58
2018-02-13T09:05:43.983Z,6.53
2018-02-13T09:06:24.331Z,6.65
2018-02-13T09:07:04.860Z,6.51
2018-02-13T09:07:45.194Z,6.58
2018-02-13T09:08:25.620Z,6.53
2018-02-13T09:09:06.105Z,6.58
2018-02-13T09:09:46.452Z,6.55
2018-02-13T09:10:27.136Z,6.54
2018-02-13T09:11:07.410Z,6.6
2018-02-13T09:11:47.780Z,6.72
2018-02-13T09:12:28.199Z,6.57
2018-02-13T09:13:08.654Z,6.43
2018-02-13T09:13:49.146Z,6.4
2018-02-13T09:14:29.619Z,6.53
2018-02-13T09:15:09.931Z,6.53
2018-02-13T09:15:50.360Z,6.68
2018-02-13T09:16:30.845Z,6.75
2018-02-13T09:17:11.246Z,6.78
2018-02-13T09:17:51.731Z,6.76
2018-02-13T09:18:32.166Z,6.73
2018-02-13T09:19:12.498Z,6.75
2018-02-13T09:19:52.916Z,7
2018-02-13T09:20:33.309Z,7.16
2018-02-13T09:21:13.824Z,7.27
2018-02-13T09:22:51.091Z,7.6
2018-02-13T09:23:33.589Z,7.6
2018-02-13T09:24:13.900Z,7.57
2018-02-13T09:24:54.367Z,7.58
2018-02-13T09:25:34.727Z,7.58
2018-02-13T09:26:15.124Z,7.6
2018-02-13T09:26:55.669Z,7.81
2018-02-13T09:27:36.220Z,7.92
2018-02-13T09:28:17.025Z,7.94
2018-02-13T09:28:57.368Z,7.92
2018-02-13T09:29:37.844Z,8.06
2018-02-13T09:30:18.505Z,8.1
2018-02-13T09:30:58.958Z,7.79
2018-02-13T09:31:43.181Z,7.79
2018-02-13T09:32:23.788Z,7.99
2018-02-13T09:33:04.270Z,7.92
2018-02-13T09:34:41.651Z,8
2018-02-13T09:35:23.959Z,8.09
2018-02-13T09:36:05.090Z,7.95
2018-02-13T09:36:45.511Z,8.04
2018-02-13T09:37:25.900Z,8.18
2018-02-13T09:38:06.809Z,8.22
2018-02-13T09:38:47.193Z,8.04
2018-02-13T09:40:39.591Z,7.99
2018-02-13T09:41:20.160Z,8.1
2018-02-13T09:42:00.841Z,7.91
2018-02-13T09:42:41.247Z,7.81
2018-02-13T09:43:21.773Z,7.77
2018-02-13T09:44:02.585Z,7.69
2018-02-13T09:44:42.979Z,7.76
2018-02-13T09:45:23.509Z,7.76
2018-02-13T09:46:03.975Z,7.79
2018-02-13T09:46:45.033Z,7.74
2018-02-13T09:47:25.453Z,7.76
2018-02-13T09:48:05.825Z,7.71
2018-02-13T09:48:46.299Z,7.63
2018-02-13T09:49:26.749Z,7.86
2018-02-13T09:50:07.120Z,7.94
2018-02-13T09:50:47.637Z,8
2018-02-13T09:51:28.048Z,8.02
2018-02-13T09:54:45.196Z,7.73
2018-02-13T09:55:25.670Z,7.6
2018-02-13T09:56:06.133Z,7.74
2018-02-13T09:56:46.449Z,7.85
2018-02-13T09:57:26.912Z,7.73
2018-02-13T09:58:07.312Z,7.71
2018-02-13T09:58:47.757Z,7.76
2018-02-13T09:59:28.341Z,7.57
2018-02-13T10:00:08.512Z,7.45
2018-02-13T10:00:48.940Z,7.48
2018-02-13T10:01:29.388Z,7.34
2018-02-13T10:02:11.600Z,7.18
2018-02-13T10:02:52.751Z,7.15
2018-02-13T10:03:35.543Z,7.09
2018-02-13T10:04:15.900Z,7.07
2018-02-13T10:04:56.561Z,7.05
2018-02-13T10:43:32.076Z,8.18
2018-02-13T10:44:13.062Z,8.25
2018-02-13T10:44:54.324Z,8.2
2018-02-13T10:45:35.963Z,8.2
2018-02-13T10:46:17.358Z,8.1
2018-02-13T10:46:58.455Z,8.07
2018-02-13T10:47:39.389Z,8.13
2018-02-13T10:48:20.659Z,8.21
2018-02-13T10:49:00.838Z,8.12
2018-02-13T10:49:41.402Z,8.04
2018-02-13T10:50:21.934Z,7.86
2018-02-13T10:51:02.776Z,7.99
2018-02-13T10:51:44.209Z,7.79
2018-02-13T10:52:25.506Z,7.82
2018-02-13T10:53:06.637Z,7.79
2018-02-13T10:53:46.826Z,7.69
2018-02-13T10:54:27.482Z,7.73
2018-02-13T10:55:08.271Z,7.77
2018-02-13T10:55:49.790Z,7.89
2018-02-13T10:56:30.507Z,7.96
2018-02-13T10:57:11.264Z,7.96
2018-02-13T10:57:51.980Z,7.95
2018-02-13T10:58:33.055Z,8.02
2018-02-13T10:59:13.538Z,8.04
2018-02-13T10:59:53.977Z,8.1
2018-02-13T11:00:35.290Z,8
2018-02-13T11:01:16.300Z,7.96
2018-02-13T11:01:57.091Z,7.99
2018-02-13T11:02:37.764Z,7.99
2018-02-13T11:03:18.494Z,8.1
2018-02-13T11:03:59.458Z,8.07
2018-02-13T11:04:42.692Z,8.1
2018-02-13T11:08:11.396Z,8.18
2018-02-13T11:08:55.394Z,8.18
2018-02-13T11:09:36.949Z,8.17
2018-02-13T11:10:20.385Z,8.39
2018-02-13T11:11:02.462Z,8.39